This is the latest recevied weather packets stored in our database for station/object AC5CM. If no packets are shown the sender has not sent any weather packets the latest 10 day(s).
| Time | Temp. | Humidity | Pressure | Rain* | Wind** | Luminosity | Snow |
|---|---|---|---|---|---|---|---|
| 1778186054 | 26.11° C | 65% | 1014.8 hPa | 0 mm | - | - | - |
| 1778185750 | 26.11° C | 65% | 1014.9 hPa | 0 mm | - | - | - |
| 1778185447 | 26.67° C | 62% | 1014.8 hPa | 0 mm | - | - | - |
| 1778185142 | 26.67° C | 62% | 1014.8 hPa | 0 mm | - | - | - |
| 1778184838 | 27.22° C | 61% | 1015 hPa | 0 mm | - | - | - |
| 1778184534 | 26.11° C | 65% | 1015 hPa | 0 mm | - | - | - |
| 1778184231 | 26.11° C | 65% | 1014.8 hPa | 0 mm | - | - | - |
| 1778183927 | 25.56° C | 65% | 1015.2 hPa | 0 mm | - | - | - |
| 1778183624 | 26.11° C | 63% | 1015.3 hPa | 0 mm | - | - | - |
| 1778183321 | 26.11° C | 65% | 1015.1 hPa | 0 mm | - | - | - |
| 1778183018 | 25.56° C | 65% | 1015.1 hPa | 0 mm | - | - | - |
| 1778182714 | 25.56° C | 65% | 1015.3 hPa | 0 mm | - | - | - |
| 1778182411 | 25.56° C | 64% | 1015.3 hPa | 0 mm | - | - | - |
| 1778182107 | 26.11° C | 64% | 1015.4 hPa | 0 mm | - | - | - |
| 1778181804 | 26.67° C | 62% | 1015.5 hPa | 0 mm | - | - | - |
| 1778181500 | 26.11° C | 64% | 1015.6 hPa | 0 mm | - | - | - |
| 1778181197 | 26.11° C | 63% | 1015.6 hPa | 0 mm | - | - | - |
| 1778180894 | 25.56° C | 65% | 1015.7 hPa | 0 mm | - | - | - |
| 1778180592 | 25° C | 67% | 1015.8 hPa | 0 mm | - | - | - |
| 1778180291 | 25.56° C | 64% | 1015.9 hPa | 0 mm | - | - | - |
| 1778179988 | 25.56° C | 65% | 1016 hPa | 0 mm | - | - | - |
| 1778179685 | 25° C | 66% | 1016.2 hPa | 0 mm | - | - | - |
| 1778179383 | 25° C | 66% | 1016.1 hPa | 0 mm | - | - | - |
| 1778179079 | 25.56° C | 65% | 1016.1 hPa | 0 mm | - | - | - |
| 1778178776 | 25.56° C | 64% | 1016 hPa | 0 mm | - | - | - |
* Rain latest hour (hover to see other rain measurements)
** Current wind speed in m/s (hover to see current wind gust speed)